createdAt,value
2018-04-19T00:00:38.267Z,21.06
2018-04-19T00:01:18.758Z,21.14
2018-04-19T00:01:59.339Z,21.14
2018-04-19T00:02:39.805Z,21.12
2018-04-19T00:03:20.319Z,21.07
2018-04-19T00:04:00.835Z,21.12
2018-04-19T00:04:41.298Z,21.1
2018-04-19T00:05:21.807Z,21.06
2018-04-19T00:06:02.324Z,21.06
2018-04-19T00:06:42.823Z,21.1
2018-04-19T00:07:23.273Z,21.04
2018-04-19T00:08:03.744Z,21.07
2018-04-19T00:08:44.260Z,21.06
2018-04-19T00:09:24.745Z,21.01
2018-04-19T00:10:05.206Z,21.09
2018-04-19T00:10:45.703Z,21.03
2018-04-19T00:11:26.230Z,20.92
2018-04-19T00:12:06.667Z,20.99
2018-04-19T00:12:47.158Z,21.01
2018-04-19T00:13:27.623Z,20.91
2018-04-19T00:14:08.153Z,20.91
2018-04-19T00:14:48.628Z,20.94
2018-04-19T00:15:29.081Z,20.91
2018-04-19T00:16:09.603Z,20.87
2018-04-19T00:16:50.123Z,20.94
2018-04-19T00:17:30.641Z,20.84
2018-04-19T00:18:11.111Z,20.92
2018-04-19T00:18:51.649Z,20.88
2018-04-19T00:19:32.158Z,20.84
2018-04-19T00:20:12.627Z,20.84
2018-04-19T00:20:53.155Z,20.8
2018-04-19T00:21:33.612Z,20.84
2018-04-19T00:22:14.116Z,20.84
2018-04-19T00:22:54.599Z,20.77
2018-04-19T00:23:35.081Z,20.77
2018-04-19T00:24:15.597Z,20.82
2018-04-19T00:24:56.055Z,20.89
2018-04-19T00:25:36.541Z,20.85
2018-04-19T00:26:17.047Z,20.76
2018-04-19T00:26:57.539Z,20.84
2018-04-19T00:27:38.011Z,20.84
2018-04-19T00:28:18.526Z,20.88
2018-04-19T00:28:59.027Z,20.87
2018-04-19T00:29:39.504Z,20.76
2018-04-19T00:30:19.969Z,20.73
2018-04-19T00:31:00.538Z,20.84
2018-04-19T00:31:41.007Z,20.69
2018-04-19T00:32:21.498Z,20.73
2018-04-19T00:33:01.990Z,20.77
2018-04-19T00:33:42.434Z,20.74
2018-04-19T00:34:22.958Z,20.61
2018-04-19T00:35:03.469Z,20.57
2018-04-19T00:35:43.966Z,20.76
2018-04-19T00:36:24.527Z,20.59
2018-04-19T00:37:04.933Z,20.73
2018-04-19T00:37:45.424Z,20.57
2018-04-19T00:38:25.937Z,20.59
2018-04-19T00:39:06.436Z,20.54
2018-04-19T00:39:46.891Z,20.61
2018-04-19T00:40:27.435Z,20.58
2018-04-19T00:41:07.922Z,20.61
2018-04-19T00:41:48.396Z,20.58
2018-04-19T00:42:28.914Z,20.59
2018-04-19T00:43:09.392Z,20.58
2018-04-19T00:43:49.882Z,20.51
2018-04-19T00:44:30.381Z,20.51
2018-04-19T00:45:10.905Z,20.54
2018-04-19T00:45:51.385Z,20.52
2018-04-19T00:46:31.885Z,20.59
2018-04-19T00:47:12.357Z,20.58
2018-04-19T00:47:52.858Z,20.57
2018-04-19T00:48:34.352Z,20.51
2018-04-19T00:49:14.852Z,20.41
2018-04-19T00:49:55.319Z,20.52
2018-04-19T00:50:35.794Z,20.5
2018-04-19T00:51:16.313Z,20.54
2018-04-19T00:51:56.821Z,20.48
2018-04-19T00:52:37.531Z,20.47
2018-04-19T00:53:18.042Z,20.52
2018-04-19T00:53:58.546Z,20.48
2018-04-19T00:54:39.024Z,20.43
2018-04-19T00:55:19.509Z,20.41
2018-04-19T00:56:00.757Z,20.42
2018-04-19T00:56:40.447Z,20.36
2018-04-19T00:57:20.974Z,20.31
2018-04-19T00:58:01.451Z,20.28
2018-04-19T00:58:41.925Z,20.31
2018-04-19T00:59:22.447Z,20.35
2018-04-19T01:00:02.947Z,20.32
2018-04-19T01:00:43.392Z,20.33
2018-04-19T01:01:23.889Z,20.35
2018-04-19T01:02:04.386Z,20.33
2018-04-19T01:02:44.857Z,20.38
2018-04-19T01:03:25.647Z,20.43
2018-04-19T01:04:06.152Z,20.32
2018-04-19T01:04:46.644Z,20.2
2018-04-19T01:05:27.129Z,20.18
2018-04-19T01:06:07.624Z,20.33
2018-04-19T01:06:48.110Z,20.33
2018-04-19T01:07:28.641Z,20.26
2018-04-19T01:08:09.080Z,20.35
2018-04-19T01:08:49.603Z,20.33
2018-04-19T01:09:30.131Z,20.26
2018-04-19T01:10:10.636Z,20.21
2018-04-19T01:10:51.092Z,20.2
2018-04-19T01:11:31.560Z,20.28
2018-04-19T01:12:12.059Z,20.18
2018-04-19T01:12:52.591Z,20.23
2018-04-19T01:13:33.046Z,20.13
2018-04-19T01:14:13.570Z,20.08
2018-04-19T01:14:54.055Z,20.13
2018-04-19T01:15:34.511Z,20.03
2018-04-19T01:16:14.989Z,20.16
2018-04-19T01:16:55.492Z,20.03
2018-04-19T01:17:35.989Z,20.14
2018-04-19T01:18:16.496Z,20.11
2018-04-19T01:18:56.966Z,20.1
2018-04-19T01:19:37.414Z,20.08
2018-04-19T01:20:17.916Z,19.96
2018-04-19T01:20:58.438Z,19.91
2018-04-19T01:21:38.958Z,19.96
2018-04-19T01:22:19.480Z,19.94
2018-04-19T01:22:59.887Z,20.02
2018-04-19T01:23:40.401Z,19.98
2018-04-19T01:24:20.969Z,19.94
2018-04-19T01:25:01.500Z,19.96
2018-04-19T01:25:41.961Z,20.02
2018-04-19T01:26:22.453Z,19.88
2018-04-19T01:27:02.960Z,19.96
2018-04-19T01:27:43.405Z,19.98
2018-04-19T01:28:23.931Z,19.96
2018-04-19T01:29:04.465Z,19.94
2018-04-19T01:29:44.945Z,19.94
2018-04-19T01:30:25.469Z,19.92
2018-04-19T01:31:05.935Z,19.98
2018-04-19T01:31:46.423Z,19.96
2018-04-19T01:32:26.898Z,19.94
2018-04-19T01:33:07.396Z,19.92
2018-04-19T01:33:47.896Z,19.96
2018-04-19T01:34:28.357Z,19.98
2018-04-19T01:35:08.831Z,19.91
2018-04-19T01:35:49.324Z,19.96
2018-04-19T01:36:29.785Z,19.92
2018-04-19T01:37:10.325Z,19.95
2018-04-19T01:37:50.836Z,19.94
2018-04-19T01:38:31.289Z,19.91
2018-04-19T01:39:11.791Z,19.81
2018-04-19T01:39:52.272Z,19.86
2018-04-19T01:40:32.736Z,19.86
2018-04-19T01:41:13.213Z,19.91
2018-04-19T01:41:53.710Z,19.96
2018-04-19T01:42:34.213Z,19.94
2018-04-19T01:43:14.664Z,19.91
2018-04-19T01:43:55.177Z,19.88
2018-04-19T01:44:35.635Z,19.91
2018-04-19T01:45:16.156Z,19.63
2018-04-19T01:45:56.664Z,19.65
2018-04-19T01:46:37.175Z,19.76
2018-04-19T01:47:19.584Z,19.71
2018-04-19T01:48:00.060Z,19.69
2018-04-19T01:48:40.552Z,19.77
2018-04-19T01:49:21.049Z,19.69
2018-04-19T01:50:01.576Z,19.76
2018-04-19T01:50:42.065Z,19.73
2018-04-19T01:51:22.562Z,19.71
2018-04-19T01:52:03.082Z,19.69
2018-04-19T01:52:43.564Z,19.65
2018-04-19T01:53:24.100Z,19.78
2018-04-19T01:54:04.606Z,19.65
2018-04-19T01:54:45.108Z,19.59
2018-04-19T01:55:25.660Z,19.61
2018-04-19T01:56:06.824Z,19.55
2018-04-19T01:56:46.732Z,19.65
2018-04-19T01:57:27.423Z,19.61
2018-04-19T01:59:21.731Z,19.4
2018-04-19T02:00:02.235Z,19.39
2018-04-19T02:00:42.738Z,19.26
2018-04-19T02:01:23.287Z,19.33
2018-04-19T02:02:03.789Z,19.37
2018-04-19T02:02:44.282Z,19.41
2018-04-19T02:03:24.767Z,19.46
2018-04-19T02:04:05.301Z,19.41
2018-04-19T02:04:45.804Z,19.39
2018-04-19T02:05:26.291Z,19.25
2018-04-19T02:06:06.831Z,19.36
2018-04-19T02:06:47.354Z,19.29
2018-04-19T02:07:27.885Z,19.29
2018-04-19T02:08:08.358Z,19.43
2018-04-19T02:08:48.918Z,19.43
2018-04-19T02:09:29.380Z,19.39
2018-04-19T02:10:09.922Z,19.4
2018-04-19T02:10:50.374Z,19.33
2018-04-19T02:11:30.920Z,19.48
2018-04-19T02:12:11.386Z,19.39
2018-04-19T02:12:51.913Z,19.43
2018-04-19T02:13:32.394Z,19.48
2018-04-19T02:14:13.039Z,19.36
2018-04-19T02:14:53.503Z,19.37
2018-04-19T02:15:34.047Z,19.37
2018-04-19T02:16:14.531Z,19.29
2018-04-19T02:16:55.025Z,19.26
2018-04-19T02:17:35.495Z,19.22
2018-04-19T02:18:16.017Z,19.29
2018-04-19T02:18:56.555Z,19.33
2018-04-19T02:19:37.028Z,19.36
2018-04-19T02:20:17.619Z,19.28
2018-04-19T02:20:58.055Z,19.29
2018-04-19T02:21:38.559Z,19.32
2018-04-19T02:22:19.036Z,19.32
2018-04-19T02:22:59.535Z,19.23
2018-04-19T02:23:39.987Z,19.13
2018-04-19T02:24:20.510Z,19.25
2018-04-19T02:25:01.010Z,19.31
2018-04-19T02:25:41.532Z,19.22
2018-04-19T02:26:22.092Z,19.21
2018-04-19T02:27:02.577Z,19.26
2018-04-19T02:27:43.087Z,19.26
2018-04-19T02:28:23.530Z,19.26
2018-04-19T02:29:04.085Z,19.13
2018-04-19T02:29:44.574Z,19.31
2018-04-19T02:30:25.049Z,19.18
2018-04-19T02:31:05.531Z,19.29
2018-04-19T02:31:45.999Z,19.23
2018-04-19T02:32:26.487Z,19.23
2018-04-19T02:33:06.956Z,19.21
2018-04-19T02:33:47.483Z,19.26
2018-04-19T02:34:27.942Z,19.25
2018-04-19T02:35:08.463Z,19.18
2018-04-19T02:35:49.058Z,19.02
2018-04-19T02:36:29.485Z,18.95
2018-04-19T02:37:09.972Z,19.04
2018-04-19T02:37:50.451Z,19.18
2018-04-19T02:38:30.936Z,19.11
2018-04-19T02:39:11.391Z,19
2018-04-19T02:39:51.900Z,19.02
2018-04-19T02:40:32.476Z,19.02
2018-04-19T02:41:12.998Z,19.07
2018-04-19T02:41:53.453Z,19.02
2018-04-19T02:42:33.919Z,19.06
2018-04-19T02:43:14.445Z,19.04
2018-04-19T02:43:54.918Z,19.06
2018-04-19T02:44:35.428Z,19.16
2018-04-19T02:45:15.932Z,19.14
2018-04-19T02:45:56.427Z,19.13
2018-04-19T02:46:36.852Z,19
2018-04-19T02:47:17.395Z,18.94
2018-04-19T02:47:57.897Z,18.92
2018-04-19T02:48:38.379Z,18.72
2018-04-19T02:49:18.853Z,18.67
2018-04-19T02:49:59.372Z,18.67
2018-04-19T02:50:39.883Z,18.72
2018-04-19T02:51:20.353Z,18.7
2018-04-19T02:52:00.861Z,18.75
2018-04-19T02:52:41.358Z,18.66
2018-04-19T02:53:21.845Z,18.62
2018-04-19T02:54:02.360Z,18.55
2018-04-19T02:54:42.919Z,18.57
2018-04-19T02:55:23.381Z,18.6
2018-04-19T02:56:03.887Z,18.63
2018-04-19T02:56:44.377Z,18.62
2018-04-19T02:57:24.870Z,18.55
2018-04-19T02:58:05.363Z,18.54
2018-04-19T02:58:45.856Z,18.57
2018-04-19T02:59:26.385Z,18.42
2018-04-19T03:00:06.902Z,18.41
2018-04-19T03:00:47.411Z,18.44
2018-04-19T03:01:27.875Z,18.52
2018-04-19T03:02:08.348Z,18.41
2018-04-19T03:02:48.867Z,18.47
2018-04-19T03:03:29.332Z,18.47
2018-04-19T03:04:09.834Z,18.5
2018-04-19T03:04:50.352Z,18.55
2018-04-19T03:05:30.813Z,18.6
2018-04-19T03:06:11.358Z,18.57
2018-04-19T03:06:51.816Z,18.55
2018-04-19T03:07:32.269Z,18.57
2018-04-19T03:08:12.782Z,18.62
2018-04-19T03:08:53.282Z,18.54
2018-04-19T03:09:33.771Z,18.58
2018-04-19T03:10:14.273Z,18.66
2018-04-19T03:10:54.794Z,18.57
2018-04-19T03:11:35.226Z,18.6
2018-04-19T03:12:15.692Z,18.65
2018-04-19T03:12:56.239Z,18.65
2018-04-19T03:13:36.691Z,18.65
2018-04-19T03:14:17.164Z,18.65
2018-04-19T03:14:57.673Z,18.62
2018-04-19T03:15:38.166Z,18.52
2018-04-19T03:16:18.615Z,18.58
2018-04-19T03:16:59.122Z,18.36
2018-04-19T03:17:39.620Z,18.44
2018-04-19T03:18:20.052Z,18.44
2018-04-19T03:19:00.569Z,18.52
2018-04-19T03:19:41.090Z,18.62
2018-04-19T03:20:21.593Z,18.47
2018-04-19T03:21:02.028Z,18.41
2018-04-19T03:21:42.475Z,18.36
2018-04-19T03:22:22.959Z,18.36
2018-04-19T03:23:03.447Z,18.36
2018-04-19T03:23:43.932Z,18.36
2018-04-19T03:24:24.452Z,18.32
2018-04-19T03:25:04.903Z,18.44
2018-04-19T03:25:45.383Z,18.37
2018-04-19T03:26:25.846Z,18.29
2018-04-19T03:27:06.361Z,18.41
2018-04-19T03:27:46.893Z,18.3
2018-04-19T03:28:27.565Z,18.36
2018-04-19T03:29:08.051Z,18.29
2018-04-19T03:29:48.540Z,18.37
2018-04-19T03:30:29.012Z,18.3
2018-04-19T03:31:09.550Z,18.33
2018-04-19T03:31:50.034Z,18.35
2018-04-19T03:32:30.492Z,18.42
2018-04-19T03:33:10.988Z,18.47
2018-04-19T03:33:51.468Z,18.35
2018-04-19T03:34:31.971Z,18.39
2018-04-19T03:35:12.458Z,18.29
2018-04-19T03:35:52.912Z,18.37
2018-04-19T03:36:33.421Z,18.44
2018-04-19T03:37:13.929Z,18.42
2018-04-19T03:37:54.430Z,18.44
2018-04-19T03:38:34.908Z,18.42
2018-04-19T03:39:15.398Z,18.39
2018-04-19T03:39:55.892Z,18.37
2018-04-19T03:40:36.338Z,18.47
2018-04-19T03:41:16.825Z,18.45
2018-04-19T03:41:57.324Z,18.44
2018-04-19T03:42:37.814Z,18.36
2018-04-19T03:43:18.364Z,18.42
2018-04-19T03:43:58.797Z,18.41
2018-04-19T03:44:39.439Z,18.42
2018-04-19T03:45:19.959Z,18.41
2018-04-19T03:46:00.456Z,18.54
2018-04-19T03:46:40.921Z,18.55
2018-04-19T03:47:21.381Z,18.44
2018-04-19T03:48:01.908Z,18.44
2018-04-19T03:48:42.885Z,18.47
2018-04-19T03:49:23.340Z,18.42
2018-04-19T03:50:03.859Z,18.36
2018-04-19T03:50:44.329Z,18.27
2018-04-19T03:51:24.864Z,18.3
2018-04-19T03:52:05.282Z,18.26
2018-04-19T03:52:45.878Z,18.25
2018-04-19T03:53:26.302Z,18.32
2018-04-19T03:54:06.762Z,18.21
2018-04-19T03:54:47.323Z,18.21
2018-04-19T03:55:27.785Z,18.3
2018-04-19T03:56:08.292Z,18.3
2018-04-19T03:56:48.749Z,18.25
2018-04-19T03:57:29.191Z,18.17
2018-04-19T03:58:09.758Z,18.27
2018-04-19T03:58:50.215Z,18.3
2018-04-19T03:59:30.711Z,18.3
2018-04-19T04:00:11.212Z,18.27
2018-04-19T04:00:51.718Z,18.3
2018-04-19T04:01:32.240Z,18.32
2018-04-19T04:02:12.833Z,18.25
2018-04-19T04:02:53.269Z,18.26
2018-04-19T04:03:33.758Z,18.29
2018-04-19T04:04:14.261Z,18.32
2018-04-19T04:04:54.736Z,18.25
2018-04-19T04:05:35.227Z,18.32
2018-04-19T04:06:15.729Z,18.29
2018-04-19T04:06:56.204Z,18.35
2018-04-19T04:07:36.695Z,18.37
2018-04-19T04:08:17.143Z,18.26
2018-04-19T04:08:57.645Z,18.32
2018-04-19T04:09:38.158Z,18.41
2018-04-19T04:10:19.440Z,18.32
2018-04-19T04:11:00.006Z,18.33
2018-04-19T04:11:40.399Z,18.27
2018-04-19T04:12:20.895Z,18.36
2018-04-19T04:13:01.395Z,18.25
2018-04-19T04:13:41.860Z,18.26
2018-04-19T04:14:22.763Z,18.25
2018-04-19T04:15:03.258Z,18.14
2018-04-19T04:15:43.738Z,18.12
2018-04-19T04:16:24.270Z,18.14
2018-04-19T04:17:04.719Z,18.14
2018-04-19T04:17:45.234Z,18.11
2018-04-19T04:18:25.769Z,18.08
2018-04-19T04:19:06.286Z,18.05
2018-04-19T04:19:46.721Z,18.05
2018-04-19T04:20:27.228Z,18.12
2018-04-19T04:21:07.722Z,18.25
2018-04-19T04:21:48.423Z,18.07
2018-04-19T04:22:28.874Z,18.14
2018-04-19T04:23:09.366Z,18.12
2018-04-19T04:23:49.917Z,18.11
2018-04-19T04:24:30.426Z,18.11
2018-04-19T04:25:10.923Z,18.07
2018-04-19T04:25:51.441Z,18.11
2018-04-19T04:26:31.939Z,18.08
2018-04-19T04:27:12.457Z,17.96
2018-04-19T04:27:52.960Z,18.02
2018-04-19T04:28:33.465Z,18.11
2018-04-19T04:29:14.116Z,18.11
2018-04-19T04:29:54.576Z,18.07
2018-04-19T04:30:35.048Z,18.1
2018-04-19T04:31:15.607Z,17.93
2018-04-19T04:31:56.054Z,18.07
2018-04-19T04:32:36.556Z,17.96
2018-04-19T04:33:17.011Z,17.96
2018-04-19T04:33:57.553Z,17.99
2018-04-19T04:34:41.228Z,17.96
2018-04-19T04:35:21.626Z,18.03
2018-04-19T04:36:02.079Z,18
2018-04-19T04:36:42.542Z,17.9
2018-04-19T04:37:23.063Z,17.97
2018-04-19T04:38:03.526Z,17.95
2018-04-19T04:38:44.085Z,17.99
2018-04-19T04:39:24.565Z,17.99
2018-04-19T04:40:05.065Z,17.95
2018-04-19T04:40:45.562Z,18.03
2018-04-19T04:41:26.072Z,18
2018-04-19T04:42:06.513Z,17.99
2018-04-19T04:42:47.046Z,17.96
2018-04-19T04:43:27.508Z,18.05
2018-04-19T04:44:08.107Z,17.99
2018-04-19T04:44:48.608Z,17.92
2018-04-19T04:45:29.139Z,18.03
2018-04-19T04:46:09.595Z,18.08
2018-04-19T04:46:50.107Z,18.03
2018-04-19T04:47:30.566Z,18.07
2018-04-19T04:48:11.163Z,17.99
2018-04-19T04:48:51.650Z,17.97
2018-04-19T04:49:32.124Z,17.97
2018-04-19T04:50:12.685Z,17.92
2018-04-19T04:50:53.173Z,17.99
2018-04-19T04:51:33.661Z,18
2018-04-19T04:52:14.149Z,17.99
2018-04-19T04:52:54.658Z,17.79
2018-04-19T04:53:35.195Z,17.79
2018-04-19T04:54:15.700Z,17.87
2018-04-19T04:54:56.144Z,17.86
2018-04-19T04:55:36.662Z,17.9
2018-04-19T04:56:17.356Z,17.81
2018-04-19T04:56:57.897Z,17.99
2018-04-19T04:57:38.411Z,17.99
2018-04-19T04:58:18.910Z,18
2018-04-19T04:58:59.403Z,17.99
2018-04-19T04:59:39.911Z,18.12
2018-04-19T05:00:20.402Z,18.17
2018-04-19T05:01:00.917Z,18.11
2018-04-19T05:01:41.462Z,18.17
2018-04-19T05:02:21.903Z,18.15
2018-04-19T05:03:02.440Z,18.12
2018-04-19T05:03:42.908Z,18.27
2018-04-19T05:04:23.406Z,18.15
2018-04-19T05:05:03.912Z,18.26
2018-04-19T05:05:44.398Z,18.3
2018-04-19T05:06:24.856Z,18.32
2018-04-19T05:07:05.411Z,18.35
2018-04-19T05:07:45.975Z,18.36
2018-04-19T05:08:26.440Z,18.36
2018-04-19T05:09:06.987Z,18.52
2018-04-19T05:09:47.463Z,18.5
2018-04-19T05:10:28.005Z,18.44
2018-04-19T05:11:08.469Z,18.52
2018-04-19T05:11:49.105Z,18.52
2018-04-19T05:12:29.567Z,18.47
2018-04-19T05:13:10.091Z,18.48
2018-04-19T05:13:50.603Z,18.51
2018-04-19T05:14:31.133Z,18.63
2018-04-19T05:15:11.543Z,18.57
2018-04-19T05:15:52.102Z,18.62
2018-04-19T05:16:32.610Z,18.57
2018-04-19T05:17:13.012Z,18.6
2018-04-19T05:17:53.466Z,18.62
2018-04-19T05:18:34.115Z,18.52
2018-04-19T05:19:14.575Z,18.58
2018-04-19T05:19:55.021Z,18.58
2018-04-19T05:20:35.527Z,18.57
2018-04-19T05:21:15.994Z,18.67
2018-04-19T05:21:56.538Z,18.58
2018-04-19T05:22:37.175Z,18.7
2018-04-19T05:23:17.883Z,18.58
2018-04-19T05:23:58.439Z,18.62
2018-04-19T05:24:39.375Z,18.66
2018-04-19T05:25:19.384Z,18.67
2018-04-19T05:25:59.931Z,18.73
2018-04-19T05:26:40.404Z,18.88
2018-04-19T05:29:05.393Z,19.07
2018-04-19T05:31:08.187Z,19.13
2018-04-19T05:31:48.793Z,19.21
2018-04-19T05:32:29.245Z,19.18
2018-04-19T05:33:09.753Z,18.95
2018-04-19T05:33:50.282Z,19.02
2018-04-19T05:34:30.789Z,18.94
2018-04-19T05:35:11.616Z,18.99
2018-04-19T05:35:52.097Z,18.9
2018-04-19T05:36:32.608Z,18.95
2018-04-19T05:37:13.077Z,19.08
2018-04-19T05:37:53.569Z,19.08
2018-04-19T05:38:34.056Z,19.02
2018-04-19T05:39:14.578Z,18.85
2018-04-19T05:39:55.418Z,18.94
2018-04-19T05:40:35.902Z,18.95
2018-04-19T05:41:16.324Z,18.99
2018-04-19T05:41:57.068Z,18.95
2018-04-19T05:42:37.524Z,18.94
2018-04-19T05:43:18.018Z,18.88
2018-04-19T05:43:58.616Z,18.95
2018-04-19T05:44:39.111Z,18.87
2018-04-19T05:45:19.725Z,18.9
2018-04-19T05:46:00.262Z,18.91
2018-04-19T05:46:40.755Z,18.99
2018-04-19T05:47:21.224Z,18.8
2018-04-19T05:48:01.760Z,18.95
2018-04-19T05:48:42.215Z,18.99
2018-04-19T05:49:22.813Z,19.07
2018-04-19T05:50:03.255Z,19.06
2018-04-19T05:50:43.728Z,19.11
2018-04-19T05:51:24.414Z,19
2018-04-19T05:52:05.167Z,18.98
2018-04-19T05:52:45.750Z,19.08
2018-04-19T05:53:26.497Z,19.07
2018-04-19T05:54:07.017Z,19.14
2018-04-19T05:54:47.540Z,19.14
2018-04-19T05:55:27.996Z,19.25
2018-04-19T05:56:09.116Z,19.39
2018-04-19T05:56:49.631Z,19.44
2018-04-19T05:57:30.178Z,19.44
2018-04-19T05:58:10.715Z,19.54
2018-04-19T05:58:51.242Z,19.51
2018-04-19T05:59:31.702Z,19.59
2018-04-19T06:00:12.232Z,19.56
2018-04-19T06:00:52.762Z,19.62
2018-04-19T06:01:33.204Z,19.54
2018-04-19T06:02:13.688Z,19.55
2018-04-19T06:02:54.172Z,19.63
2018-04-19T06:03:34.698Z,19.5
2018-04-19T06:04:15.199Z,19.5
2018-04-19T06:04:55.687Z,19.71
2018-04-19T06:05:36.195Z,19.77
2018-04-19T06:06:16.705Z,19.69
2018-04-19T06:06:57.281Z,19.74
2018-04-19T06:07:37.702Z,19.69
2018-04-19T06:08:18.235Z,19.87
2018-04-19T06:08:58.725Z,19.88
2018-04-19T06:09:39.376Z,20.1
2018-04-19T06:10:19.843Z,20.08
2018-04-19T06:11:00.390Z,19.98
2018-04-19T06:11:40.867Z,19.95
2018-04-19T06:12:21.316Z,20.03
2018-04-19T06:13:01.869Z,19.96
2018-04-19T06:13:42.352Z,20.13
2018-04-19T06:14:22.819Z,20.29
2018-04-19T06:15:03.326Z,20.14
2018-04-19T06:15:43.820Z,20.01
2018-04-19T06:16:24.353Z,20.02
2018-04-19T06:17:04.876Z,19.88
2018-04-19T06:17:45.373Z,19.84
2018-04-19T06:18:25.837Z,19.88
2018-04-19T06:19:06.336Z,20.05
2018-04-19T06:19:46.824Z,20.05
2018-04-19T06:20:27.259Z,20.18
2018-04-19T06:21:07.785Z,19.99
2018-04-19T06:21:48.305Z,20.02
2018-04-19T06:22:28.799Z,20.16
2018-04-19T06:23:09.423Z,20.06
2018-04-19T06:23:49.880Z,20.05
2018-04-19T06:24:30.349Z,20.06
2018-04-19T06:25:10.824Z,20.11
2018-04-19T06:25:51.420Z,20.18
2018-04-19T06:26:31.882Z,20.05
2018-04-19T06:27:12.364Z,20.06
2018-04-19T06:27:52.859Z,20.11
2018-04-19T06:28:33.926Z,20.08
2018-04-19T06:29:14.399Z,20.11
2018-04-19T06:29:54.908Z,20.2
2018-04-19T06:30:35.476Z,20.08
2018-04-19T06:31:16.092Z,20.1
2018-04-19T06:31:56.619Z,20.14
2018-04-19T06:32:37.153Z,20.17
2018-04-19T06:33:17.984Z,20.13
2018-04-19T06:33:58.300Z,20.14
2018-04-19T06:34:38.745Z,20.16
2018-04-19T06:35:19.499Z,20.32
2018-04-19T06:36:00.067Z,20.29
2018-04-19T06:36:40.488Z,20.14
2018-04-19T06:37:20.950Z,20.14
2018-04-19T06:38:01.466Z,20.17
2018-04-19T06:38:41.977Z,20.2
2018-04-19T06:39:22.650Z,20.13
2018-04-19T06:40:03.140Z,20.2
2018-04-19T06:40:43.736Z,20.26
2018-04-19T06:41:24.402Z,20.35
2018-04-19T06:42:04.957Z,20.43
2018-04-19T06:42:45.799Z,20.5
2018-04-19T06:43:26.318Z,20.57
2018-04-19T06:44:07.208Z,20.58
2018-04-19T06:44:47.786Z,20.55
2018-04-19T06:45:28.323Z,20.62
2018-04-19T06:46:09.020Z,20.8
2018-04-19T06:46:49.489Z,20.92
2018-04-19T06:47:30.036Z,21.04
2018-04-19T06:48:10.552Z,21.09
2018-04-19T06:48:51.094Z,21.13
2018-04-19T06:49:31.539Z,21.04
2018-04-19T06:50:12.024Z,21.12
2018-04-19T06:50:52.519Z,20.97
2018-04-19T06:51:33.183Z,21.16
2018-04-19T06:52:13.680Z,21.12
2018-04-19T06:52:54.249Z,21.22
2018-04-19T06:53:35.504Z,21.17
2018-04-19T06:54:15.982Z,21.19
2018-04-19T06:54:56.656Z,21.32
2018-04-19T06:55:37.190Z,21.29
2018-04-19T06:56:17.664Z,21.21
2018-04-19T06:56:58.227Z,21.14
2018-04-19T06:57:38.710Z,21.1
2018-04-19T06:58:19.434Z,21.16
2018-04-19T06:58:59.919Z,21.04
2018-04-19T06:59:40.405Z,21.09
2018-04-19T07:00:20.876Z,21.13
2018-04-19T07:01:01.424Z,21.22
2018-04-19T07:01:41.950Z,21.16
2018-04-19T07:02:22.509Z,21.03
2018-04-19T07:03:03.199Z,21.22
2018-04-19T07:03:43.511Z,21.14
2018-04-19T07:04:24.102Z,21.21
2018-04-19T07:05:04.626Z,21.21
2018-04-19T07:05:45.154Z,21.35
2018-04-19T07:06:25.676Z,21.46
2018-04-19T07:07:06.264Z,21.5
2018-04-19T07:07:46.776Z,21.71
2018-04-19T07:08:27.355Z,21.84
2018-04-19T07:09:08.235Z,21.82
2018-04-19T07:09:48.821Z,21.9
2018-04-19T07:10:29.275Z,21.88
2018-04-19T07:11:09.775Z,21.94
2018-04-19T07:11:50.228Z,21.98
2018-04-19T07:12:30.790Z,21.92
2018-04-19T07:13:11.385Z,22.05
2018-04-19T07:13:51.842Z,22.03
2018-04-19T07:14:32.336Z,22.09
2018-04-19T07:15:12.991Z,22.17
2018-04-19T07:15:53.415Z,22.21
2018-04-19T07:16:34.208Z,22.12
2018-04-19T07:17:14.741Z,22.15
2018-04-19T07:17:55.434Z,22.14
2018-04-19T07:18:35.732Z,22.3
2018-04-19T07:19:16.285Z,22.28
2018-04-19T07:19:56.825Z,22.33
2018-04-19T07:20:37.318Z,22.3
2018-04-19T07:21:17.896Z,22.42
2018-04-19T07:21:59.012Z,22.49
2018-04-19T07:22:39.541Z,22.4
2018-04-19T07:23:20.080Z,22.45
2018-04-19T07:24:00.811Z,22.43
2018-04-19T07:24:41.292Z,22.31
2018-04-19T07:25:21.812Z,22.37
2018-04-19T07:26:02.370Z,22.27
2018-04-19T07:26:42.814Z,22.28
2018-04-19T07:27:23.511Z,22.3
2018-04-19T07:28:03.806Z,22.3
2018-04-19T07:28:44.337Z,22.33
2018-04-19T07:29:24.863Z,22.28
2018-04-19T07:30:05.390Z,22.25
2018-04-19T07:30:45.857Z,22.36
2018-04-19T07:31:26.466Z,22.28
2018-04-19T07:32:06.984Z,22.37
2018-04-19T07:32:47.424Z,22.35
2018-04-19T07:33:27.913Z,22.39
2018-04-19T07:34:08.857Z,22.43
2018-04-19T07:34:49.067Z,22.42
2018-04-19T07:35:29.827Z,22.52
2018-04-19T07:36:10.317Z,22.6
2018-04-19T07:36:50.915Z,22.54
2018-04-19T07:37:31.420Z,22.62
2018-04-19T07:38:11.944Z,22.58
2018-04-19T07:38:52.416Z,22.61
2018-04-19T07:39:32.926Z,22.61
2018-04-19T07:40:13.411Z,22.58
2018-04-19T07:40:54.336Z,22.52
2018-04-19T07:41:34.825Z,22.54
2018-04-19T07:42:15.337Z,22.54
2018-04-19T07:42:55.821Z,22.62
2018-04-19T07:43:36.335Z,22.68
2018-04-19T07:44:16.795Z,22.7
2018-04-19T07:44:57.295Z,22.73
2018-04-19T07:45:37.788Z,22.8
2018-04-19T07:46:18.313Z,22.79
2018-04-19T07:46:58.782Z,22.73
2018-04-19T07:47:39.402Z,22.86
2018-04-19T07:48:19.855Z,22.85
2018-04-19T07:49:00.408Z,22.88
2018-04-19T07:49:40.824Z,22.86
2018-04-19T07:50:21.398Z,22.77
2018-04-19T07:51:01.868Z,22.94
2018-04-19T07:51:42.339Z,22.86
2018-04-19T07:52:22.920Z,22.88
2018-04-19T07:53:03.592Z,22.75
2018-04-19T07:53:44.264Z,22.82
2018-04-19T07:54:25.049Z,22.67
2018-04-19T07:55:05.664Z,22.86
2018-04-19T07:55:46.081Z,22.83
2018-04-19T07:56:26.612Z,22.79
2018-04-19T07:57:07.107Z,22.72
2018-04-19T07:57:47.620Z,22.7
2018-04-19T07:58:28.087Z,22.65
2018-04-19T07:59:08.562Z,22.7
2018-04-19T07:59:49.146Z,22.62
2018-04-19T08:00:29.619Z,22.65
2018-04-19T08:01:10.180Z,22.62
2018-04-19T08:01:50.661Z,22.75
2018-04-19T08:02:31.203Z,22.7
2018-04-19T08:03:11.777Z,22.57
2018-04-19T08:03:52.296Z,22.6
2018-04-19T08:04:32.801Z,22.61
2018-04-19T08:05:13.376Z,22.49
2018-04-19T08:05:53.765Z,22.45
2018-04-19T08:06:34.955Z,22.52
2018-04-19T08:07:15.414Z,22.57
2018-04-19T08:07:55.921Z,22.54
2018-04-19T08:08:36.590Z,22.49
2018-04-19T08:09:17.133Z,22.45
2018-04-19T08:09:57.581Z,22.3
2018-04-19T08:10:38.034Z,22.3
2018-04-19T08:11:18.553Z,22.27
2018-04-19T08:11:58.996Z,22.37
2018-04-19T08:12:39.465Z,22.27
2018-04-19T08:13:20.171Z,22.21
2018-04-19T08:14:00.686Z,22.24
2018-04-19T08:14:41.222Z,22.15
2018-04-19T08:15:21.769Z,22.2
2018-04-19T08:16:02.236Z,22.17
2018-04-19T08:16:42.932Z,22.2
2018-04-19T08:17:23.424Z,22.3
2018-04-19T08:18:03.959Z,22.3
2018-04-19T08:18:45.163Z,22.42
2018-04-19T08:19:25.696Z,22.42
2018-04-19T08:20:06.157Z,22.36
2018-04-19T08:20:46.687Z,22.45
2018-04-19T08:21:27.110Z,22.52
2018-04-19T08:22:07.704Z,22.37
2018-04-19T08:22:48.217Z,22.37
2018-04-19T08:23:28.841Z,22.37
2018-04-19T08:24:09.398Z,22.52
2018-04-19T08:24:50.248Z,22.43
2018-04-19T08:25:30.709Z,22.58
2018-04-19T08:26:11.345Z,22.54
2018-04-19T08:26:51.817Z,22.54
2018-04-19T08:27:32.316Z,22.55
2018-04-19T08:28:12.816Z,22.57
2018-04-19T08:28:53.324Z,22.45
2018-04-19T08:29:33.806Z,22.54
2018-04-19T08:30:14.620Z,22.49
2018-04-19T08:30:55.113Z,22.6
2018-04-19T08:31:35.466Z,22.75
2018-04-19T08:32:16.015Z,22.57
2018-04-19T08:32:56.772Z,22.64
2018-04-19T08:33:37.269Z,22.65
2018-04-19T08:34:17.770Z,22.68
2018-04-19T08:34:58.235Z,22.65
2018-04-19T08:35:38.772Z,22.68
2018-04-19T08:36:19.279Z,22.7
2018-04-19T08:36:59.807Z,22.64
2018-04-19T08:37:40.315Z,22.61
2018-04-19T08:38:21.030Z,22.47
2018-04-19T08:39:01.497Z,22.47
2018-04-19T08:39:41.975Z,22.4
2018-04-19T08:40:22.516Z,22.36
2018-04-19T08:41:03.033Z,22.46
2018-04-19T08:41:43.493Z,22.51
2018-04-19T08:42:24.120Z,22.51
2018-04-19T08:43:04.618Z,22.49
2018-04-19T08:43:45.360Z,22.61
2018-04-19T08:44:25.636Z,22.57
2018-04-19T08:46:25.704Z,22.62
2018-04-19T08:47:06.194Z,22.49
2018-04-19T08:47:46.885Z,22.58
2018-04-19T08:48:27.296Z,22.68
2018-04-19T08:49:07.834Z,22.73
2018-04-19T08:49:48.347Z,22.65